sensor_id;sensor_type;location;lat;lon;timestamp;temperature;humidity
13440;DHT22;6792;57.698;11.946;2023-09-30T00:00:12;21.60;54.40
13440;DHT22;6792;57.698;11.946;2023-09-30T00:02:42;21.60;54.40
13440;DHT22;6792;57.698;11.946;2023-09-30T00:05:11;21.60;54.40
13440;DHT22;6792;57.698;11.946;2023-09-30T00:07:42;21.60;54.40
13440;DHT22;6792;57.698;11.946;2023-09-30T00:10:12;21.60;55.00
13440;DHT22;6792;57.698;11.946;2023-09-30T00:12:42;21.60;54.30
13440;DHT22;6792;57.698;11.946;2023-09-30T00:15:13;21.60;54.40
13440;DHT22;6792;57.698;11.946;2023-09-30T00:17:42;21.60;54.40
13440;DHT22;6792;57.698;11.946;2023-09-30T00:20:12;21.60;54.40
13440;DHT22;6792;57.698;11.946;2023-09-30T00:22:43;21.60;54.30
13440;DHT22;6792;57.698;11.946;2023-09-30T00:25:12;21.60;54.40
13440;DHT22;6792;57.698;11.946;2023-09-30T00:27:41;21.60;54.40
13440;DHT22;6792;57.698;11.946;2023-09-30T00:30:11;21.60;54.30
13440;DHT22;6792;57.698;11.946;2023-09-30T00:32:40;21.60;54.30
13440;DHT22;6792;57.698;11.946;2023-09-30T00:35:10;21.50;53.70
13440;DHT22;6792;57.698;11.946;2023-09-30T00:37:40;21.50;54.40
13440;DHT22;6792;57.698;11.946;2023-09-30T00:40:11;21.50;54.30
13440;DHT22;6792;57.698;11.946;2023-09-30T00:42:41;21.50;54.30
13440;DHT22;6792;57.698;11.946;2023-09-30T00:45:11;21.50;54.30
13440;DHT22;6792;57.698;11.946;2023-09-30T00:47:41;21.50;54.30
13440;DHT22;6792;57.698;11.946;2023-09-30T00:50:11;21.50;54.30
13440;DHT22;6792;57.698;11.946;2023-09-30T00:52:41;21.50;54.30
13440;DHT22;6792;57.698;11.946;2023-09-30T00:55:11;21.40;54.20
13440;DHT22;6792;57.698;11.946;2023-09-30T00:57:42;21.40;54.30
13440;DHT22;6792;57.698;11.946;2023-09-30T01:02:53;21.40;54.30
13440;DHT22;6792;57.698;11.946;2023-09-30T01:05:24;21.50;53.70
13440;DHT22;6792;57.698;11.946;2023-09-30T01:07:53;21.40;54.30
13440;DHT22;6792;57.698;11.946;2023-09-30T01:10:22;21.50;54.30
13440;DHT22;6792;57.698;11.946;2023-09-30T01:12:52;21.50;54.30
13440;DHT22;6792;57.698;11.946;2023-09-30T01:15:21;21.50;54.40
13440;DHT22;6792;57.698;11.946;2023-09-30T01:17:50;21.50;54.50
13440;DHT22;6792;57.698;11.946;2023-09-30T01:20:19;21.50;54.50
13440;DHT22;6792;57.698;11.946;2023-09-30T01:22:50;21.50;54.50
13440;DHT22;6792;57.698;11.946;2023-09-30T01:25:19;21.50;54.50
13440;DHT22;6792;57.698;11.946;2023-09-30T01:27:49;21.50;54.50
13440;DHT22;6792;57.698;11.946;2023-09-30T01:30:19;21.50;54.00
13440;DHT22;6792;57.698;11.946;2023-09-30T01:32:49;21.50;54.60
13440;DHT22;6792;57.698;11.946;2023-09-30T01:35:19;21.50;54.60
13440;DHT22;6792;57.698;11.946;2023-09-30T01:37:49;21.50;54.60
13440;DHT22;6792;57.698;11.946;2023-09-30T01:40:18;21.50;54.60
13440;DHT22;6792;57.698;11.946;2023-09-30T01:42:47;21.60;54.60
13440;DHT22;6792;57.698;11.946;2023-09-30T01:45:17;21.50;54.60
13440;DHT22;6792;57.698;11.946;2023-09-30T01:47:46;21.50;54.60
13440;DHT22;6792;57.698;11.946;2023-09-30T01:50:15;21.50;54.50
13440;DHT22;6792;57.698;11.946;2023-09-30T01:52:45;21.60;54.60
13440;DHT22;6792;57.698;11.946;2023-09-30T01:55:14;21.60;54.60
13440;DHT22;6792;57.698;11.946;2023-09-30T01:57:43;21.60;54.60
13440;DHT22;6792;57.698;11.946;2023-09-30T02:00:13;21.60;54.50
13440;DHT22;6792;57.698;11.946;2023-09-30T02:02:42;21.50;54.60
13440;DHT22;6792;57.698;11.946;2023-09-30T02:05:11;21.60;54.60
13440;DHT22;6792;57.698;11.946;2023-09-30T02:07:41;21.60;54.60
13440;DHT22;6792;57.698;11.946;2023-09-30T02:10:11;21.60;54.60
13440;DHT22;6792;57.698;11.946;2023-09-30T02:12:40;21.50;54.60
13440;DHT22;6792;57.698;11.946;2023-09-30T02:15:11;21.60;54.60
13440;DHT22;6792;57.698;11.946;2023-09-30T02:17:40;21.50;54.70
13440;DHT22;6792;57.698;11.946;2023-09-30T02:20:12;21.50;54.70
13440;DHT22;6792;57.698;11.946;2023-09-30T02:22:44;21.50;54.70
13440;DHT22;6792;57.698;11.946;2023-09-30T02:25:14;21.50;54.70
13440;DHT22;6792;57.698;11.946;2023-09-30T02:27:43;21.50;54.80
13440;DHT22;6792;57.698;11.946;2023-09-30T02:30:13;21.40;54.80
13440;DHT22;6792;57.698;11.946;2023-09-30T02:32:43;21.50;54.80
13440;DHT22;6792;57.698;11.946;2023-09-30T02:35:14;21.40;54.80
13440;DHT22;6792;57.698;11.946;2023-09-30T02:37:43;21.40;54.90
13440;DHT22;6792;57.698;11.946;2023-09-30T02:40:13;21.40;55.00
13440;DHT22;6792;57.698;11.946;2023-09-30T02:42:42;21.40;55.00
13440;DHT22;6792;57.698;11.946;2023-09-30T02:45:12;21.40;55.00
13440;DHT22;6792;57.698;11.946;2023-09-30T02:47:41;21.40;55.20
13440;DHT22;6792;57.698;11.946;2023-09-30T02:50:11;21.30;55.10
13440;DHT22;6792;57.698;11.946;2023-09-30T02:52:41;21.30;55.10
13440;DHT22;6792;57.698;11.946;2023-09-30T02:55:11;21.30;55.10
13440;DHT22;6792;57.698;11.946;2023-09-30T02:57:40;21.30;55.20
13440;DHT22;6792;57.698;11.946;2023-09-30T03:00:11;21.30;55.10
13440;DHT22;6792;57.698;11.946;2023-09-30T03:02:42;21.30;55.20
13440;DHT22;6792;57.698;11.946;2023-09-30T03:05:11;21.30;55.30
13440;DHT22;6792;57.698;11.946;2023-09-30T03:07:40;21.30;55.20
13440;DHT22;6792;57.698;11.946;2023-09-30T03:10:10;21.30;55.20
13440;DHT22;6792;57.698;11.946;2023-09-30T03:12:41;21.40;55.30
13440;DHT22;6792;57.698;11.946;2023-09-30T03:15:10;21.40;55.30
13440;DHT22;6792;57.698;11.946;2023-09-30T03:17:39;21.40;55.20
13440;DHT22;6792;57.698;11.946;2023-09-30T03:20:10;21.40;55.20
13440;DHT22;6792;57.698;11.946;2023-09-30T03:22:41;21.40;55.20
13440;DHT22;6792;57.698;11.946;2023-09-30T03:25:11;21.40;55.30
13440;DHT22;6792;57.698;11.946;2023-09-30T03:27:40;21.40;55.30
13440;DHT22;6792;57.698;11.946;2023-09-30T03:30:14;21.40;54.80
13440;DHT22;6792;57.698;11.946;2023-09-30T03:32:44;21.40;55.30
13440;DHT22;6792;57.698;11.946;2023-09-30T03:35:13;21.50;55.30
13440;DHT22;6792;57.698;11.946;2023-09-30T03:37:44;21.50;55.30
13440;DHT22;6792;57.698;11.946;2023-09-30T03:40:14;21.50;55.30
13440;DHT22;6792;57.698;11.946;2023-09-30T03:42:46;21.50;55.30
13440;DHT22;6792;57.698;11.946;2023-09-30T03:45:17;21.50;55.30
13440;DHT22;6792;57.698;11.946;2023-09-30T03:47:46;21.50;55.30
13440;DHT22;6792;57.698;11.946;2023-09-30T03:50:16;21.50;55.20
13440;DHT22;6792;57.698;11.946;2023-09-30T03:52:45;21.50;55.20
13440;DHT22;6792;57.698;11.946;2023-09-30T03:57:53;21.50;55.20
13440;DHT22;6792;57.698;11.946;2023-09-30T04:00:23;21.50;55.20
13440;DHT22;6792;57.698;11.946;2023-09-30T04:02:52;21.40;55.10
13440;DHT22;6792;57.698;11.946;2023-09-30T04:05:24;21.40;54.60
13440;DHT22;6792;57.698;11.946;2023-09-30T04:07:55;21.40;55.10
13440;DHT22;6792;57.698;11.946;2023-09-30T04:10:24;21.40;55.10
13440;DHT22;6792;57.698;11.946;2023-09-30T04:12:53;21.40;55.20
13440;DHT22;6792;57.698;11.946;2023-09-30T04:15:23;21.40;55.20
13440;DHT22;6792;57.698;11.946;2023-09-30T04:17:52;21.40;55.20
13440;DHT22;6792;57.698;11.946;2023-09-30T04:20:21;21.40;55.30
13440;DHT22;6792;57.698;11.946;2023-09-30T04:22:53;21.40;55.30
13440;DHT22;6792;57.698;11.946;2023-09-30T04:25:25;21.40;55.30
13440;DHT22;6792;57.698;11.946;2023-09-30T04:27:54;21.40;55.60
13440;DHT22;6792;57.698;11.946;2023-09-30T04:30:25;21.40;55.40
13440;DHT22;6792;57.698;11.946;2023-09-30T04:32:55;21.40;55.30
13440;DHT22;6792;57.698;11.946;2023-09-30T04:35:26;21.80;55.00
13440;DHT22;6792;57.698;11.946;2023-09-30T04:37:58;21.40;55.30
13440;DHT22;6792;57.698;11.946;2023-09-30T04:40:29;21.40;55.30
13440;DHT22;6792;57.698;11.946;2023-09-30T04:42:58;21.40;55.30
13440;DHT22;6792;57.698;11.946;2023-09-30T04:45:27;21.30;55.30
13440;DHT22;6792;57.698;11.946;2023-09-30T04:47:56;21.40;55.30
13440;DHT22;6792;57.698;11.946;2023-09-30T04:50:25;21.30;54.70
13440;DHT22;6792;57.698;11.946;2023-09-30T04:52:55;21.30;55.30
13440;DHT22;6792;57.698;11.946;2023-09-30T04:55:25;21.30;55.30
13440;DHT22;6792;57.698;11.946;2023-09-30T04:57:54;21.30;55.30
13440;DHT22;6792;57.698;11.946;2023-09-30T05:00:24;21.30;54.80
13440;DHT22;6792;57.698;11.946;2023-09-30T05:05:33;21.30;54.80
13440;DHT22;6792;57.698;11.946;2023-09-30T05:08:03;21.30;55.30
13440;DHT22;6792;57.698;11.946;2023-09-30T05:10:33;21.30;55.30
13440;DHT22;6792;57.698;11.946;2023-09-30T05:13:03;21.30;55.30
13440;DHT22;6792;57.698;11.946;2023-09-30T05:15:33;21.30;55.20
13440;DHT22;6792;57.698;11.946;2023-09-30T05:18:04;21.30;55.10
13440;DHT22;6792;57.698;11.946;2023-09-30T05:20:35;21.30;54.60
13440;DHT22;6792;57.698;11.946;2023-09-30T05:23:07;21.30;55.00
13440;DHT22;6792;57.698;11.946;2023-09-30T05:25:36;21.30;55.00
13440;DHT22;6792;57.698;11.946;2023-09-30T05:28:05;21.40;55.00
13440;DHT22;6792;57.698;11.946;2023-09-30T05:30:35;21.40;55.00
13440;DHT22;6792;57.698;11.946;2023-09-30T05:33:04;21.50;55.00
13440;DHT22;6792;57.698;11.946;2023-09-30T05:35:34;21.40;54.90
13440;DHT22;6792;57.698;11.946;2023-09-30T05:40:43;21.40;55.00
13440;DHT22;6792;57.698;11.946;2023-09-30T05:43:13;21.40;55.00
13440;DHT22;6792;57.698;11.946;2023-09-30T05:45:43;21.30;55.00
13440;DHT22;6792;57.698;11.946;2023-09-30T05:48:15;21.30;55.00
13440;DHT22;6792;57.698;11.946;2023-09-30T05:50:45;21.30;55.10
13440;DHT22;6792;57.698;11.946;2023-09-30T05:53:15;21.30;54.50
13440;DHT22;6792;57.698;11.946;2023-09-30T05:55:45;21.30;54.90
13440;DHT22;6792;57.698;11.946;2023-09-30T05:58:15;21.30;54.80
13440;DHT22;6792;57.698;11.946;2023-09-30T06:00:45;21.20;54.70
13440;DHT22;6792;57.698;11.946;2023-09-30T06:03:14;21.20;54.60
13440;DHT22;6792;57.698;11.946;2023-09-30T06:05:43;21.20;54.40
13440;DHT22;6792;57.698;11.946;2023-09-30T06:08:15;21.20;54.30
13440;DHT22;6792;57.698;11.946;2023-09-30T06:10:46;21.20;54.30
13440;DHT22;6792;57.698;11.946;2023-09-30T06:13:15;21.20;54.30
13440;DHT22;6792;57.698;11.946;2023-09-30T06:18:21;21.20;54.10
13440;DHT22;6792;57.698;11.946;2023-09-30T06:20:51;21.20;54.10
13440;DHT22;6792;57.698;11.946;2023-09-30T06:23:21;21.20;54.50
13440;DHT22;6792;57.698;11.946;2023-09-30T06:25:51;21.20;53.80
13440;DHT22;6792;57.698;11.946;2023-09-30T06:28:20;21.20;53.70
13440;DHT22;6792;57.698;11.946;2023-09-30T06:30:51;21.20;53.70
13440;DHT22;6792;57.698;11.946;2023-09-30T06:33:25;21.20;53.70
13440;DHT22;6792;57.698;11.946;2023-09-30T06:35:56;21.20;53.60
13440;DHT22;6792;57.698;11.946;2023-09-30T06:38:27;21.20;53.50
13440;DHT22;6792;57.698;11.946;2023-09-30T06:40:56;21.30;53.50
13440;DHT22;6792;57.698;11.946;2023-09-30T06:43:26;21.30;53.40
13440;DHT22;6792;57.698;11.946;2023-09-30T06:45:55;21.30;53.30
13440;DHT22;6792;57.698;11.946;2023-09-30T06:48:24;21.30;53.20
13440;DHT22;6792;57.698;11.946;2023-09-30T06:50:54;21.30;53.10
13440;DHT22;6792;57.698;11.946;2023-09-30T06:53:23;21.40;53.00
13440;DHT22;6792;57.698;11.946;2023-09-30T06:55:52;21.30;52.30
13440;DHT22;6792;57.698;11.946;2023-09-30T06:58:21;21.30;52.90
13440;DHT22;6792;57.698;11.946;2023-09-30T07:00:51;21.30;52.80
13440;DHT22;6792;57.698;11.946;2023-09-30T07:03:21;21.20;53.00
13440;DHT22;6792;57.698;11.946;2023-09-30T07:05:51;21.20;53.10
13440;DHT22;6792;57.698;11.946;2023-09-30T07:08:24;21.20;53.30
13440;DHT22;6792;57.698;11.946;2023-09-30T07:10:54;21.10;53.50
13440;DHT22;6792;57.698;11.946;2023-09-30T07:13:24;21.10;53.60
13440;DHT22;6792;57.698;11.946;2023-09-30T07:15:53;21.10;53.60
13440;DHT22;6792;57.698;11.946;2023-09-30T07:18:22;21.00;53.70
13440;DHT22;6792;57.698;11.946;2023-09-30T07:20:52;21.00;53.80
13440;DHT22;6792;57.698;11.946;2023-09-30T07:23:21;21.00;53.90
13440;DHT22;6792;57.698;11.946;2023-09-30T07:25:51;20.90;54.00
13440;DHT22;6792;57.698;11.946;2023-09-30T07:31:03;20.80;53.70
13440;DHT22;6792;57.698;11.946;2023-09-30T07:33:32;20.80;54.30
13440;DHT22;6792;57.698;11.946;2023-09-30T07:36:02;20.80;54.40
13440;DHT22;6792;57.698;11.946;2023-09-30T07:38:31;20.80;53.80
13440;DHT22;6792;57.698;11.946;2023-09-30T07:41:01;20.80;54.40
13440;DHT22;6792;57.698;11.946;2023-09-30T07:43:32;20.80;54.30
13440;DHT22;6792;57.698;11.946;2023-09-30T07:46:06;20.80;54.90
13440;DHT22;6792;57.698;11.946;2023-09-30T07:48:36;20.90;54.30
13440;DHT22;6792;57.698;11.946;2023-09-30T07:51:05;20.90;54.20
13440;DHT22;6792;57.698;11.946;2023-09-30T07:53:36;20.90;54.20
13440;DHT22;6792;57.698;11.946;2023-09-30T07:56:06;20.90;54.10
13440;DHT22;6792;57.698;11.946;2023-09-30T07:58:35;20.90;54.10
13440;DHT22;6792;57.698;11.946;2023-09-30T08:01:04;20.90;54.00
13440;DHT22;6792;57.698;11.946;2023-09-30T08:03:33;21.00;54.00
13440;DHT22;6792;57.698;11.946;2023-09-30T08:06:03;21.00;53.90
13440;DHT22;6792;57.698;11.946;2023-09-30T08:08:33;21.10;53.90
13440;DHT22;6792;57.698;11.946;2023-09-30T08:11:02;21.20;53.90
13440;DHT22;6792;57.698;11.946;2023-09-30T08:13:33;21.20;53.80
13440;DHT22;6792;57.698;11.946;2023-09-30T08:16:02;21.20;53.70
13440;DHT22;6792;57.698;11.946;2023-09-30T08:18:32;21.30;53.70
13440;DHT22;6792;57.698;11.946;2023-09-30T08:21:01;21.30;53.70
13440;DHT22;6792;57.698;11.946;2023-09-30T08:23:31;21.30;53.70
13440;DHT22;6792;57.698;11.946;2023-09-30T08:26:01;21.40;53.70
13440;DHT22;6792;57.698;11.946;2023-09-30T08:28:31;21.40;53.70
13440;DHT22;6792;57.698;11.946;2023-09-30T08:31:04;21.50;53.60
13440;DHT22;6792;57.698;11.946;2023-09-30T08:33:33;21.50;52.90
13440;DHT22;6792;57.698;11.946;2023-09-30T08:36:05;21.50;53.40
13440;DHT22;6792;57.698;11.946;2023-09-30T08:38:37;21.50;52.70
13440;DHT22;6792;57.698;11.946;2023-09-30T08:41:06;21.60;52.70
13440;DHT22;6792;57.698;11.946;2023-09-30T08:43:38;21.70;53.20
13440;DHT22;6792;57.698;11.946;2023-09-30T08:46:08;21.60;52.50
13440;DHT22;6792;57.698;11.946;2023-09-30T08:48:38;21.70;53.00
13440;DHT22;6792;57.698;11.946;2023-09-30T08:51:07;21.70;52.40
13440;DHT22;6792;57.698;11.946;2023-09-30T08:53:36;21.70;52.20
13440;DHT22;6792;57.698;11.946;2023-09-30T08:56:07;21.70;52.70
13440;DHT22;6792;57.698;11.946;2023-09-30T08:58:38;21.70;52.00
13440;DHT22;6792;57.698;11.946;2023-09-30T09:01:09;21.80;52.50
13440;DHT22;6792;57.698;11.946;2023-09-30T09:03:39;21.80;51.90
13440;DHT22;6792;57.698;11.946;2023-09-30T09:06:08;21.80;52.40
13440;DHT22;6792;57.698;11.946;2023-09-30T09:08:37;21.90;52.30
13440;DHT22;6792;57.698;11.946;2023-09-30T09:11:06;21.90;52.20
13440;DHT22;6792;57.698;11.946;2023-09-30T09:13:48;21.90;52.20
13440;DHT22;6792;57.698;11.946;2023-09-30T09:16:18;22.00;52.20
13440;DHT22;6792;57.698;11.946;2023-09-30T09:18:47;22.00;51.60
13440;DHT22;6792;57.698;11.946;2023-09-30T09:21:18;22.00;52.10
13440;DHT22;6792;57.698;11.946;2023-09-30T09:23:49;22.00;51.50
13440;DHT22;6792;57.698;11.946;2023-09-30T09:26:26;22.00;52.00
13440;DHT22;6792;57.698;11.946;2023-09-30T09:28:58;22.00;52.00
13440;DHT22;6792;57.698;11.946;2023-09-30T09:31:29;22.00;52.00
13440;DHT22;6792;57.698;11.946;2023-09-30T09:33:59;22.00;52.00
13440;DHT22;6792;57.698;11.946;2023-09-30T09:36:40;22.00;52.00
13440;DHT22;6792;57.698;11.946;2023-09-30T09:39:10;22.00;52.00
13440;DHT22;6792;57.698;11.946;2023-09-30T09:41:51;22.00;52.00
13440;DHT22;6792;57.698;11.946;2023-09-30T09:44:21;22.00;52.10
13440;DHT22;6792;57.698;11.946;2023-09-30T09:46:51;22.00;52.10
13440;DHT22;6792;57.698;11.946;2023-09-30T09:49:21;22.00;51.70
13440;DHT22;6792;57.698;11.946;2023-09-30T09:51:51;22.10;52.20
13440;DHT22;6792;57.698;11.946;2023-09-30T09:54:22;22.10;52.20
13440;DHT22;6792;57.698;11.946;2023-09-30T09:56:52;22.10;52.10
13440;DHT22;6792;57.698;11.946;2023-09-30T09:59:23;22.20;52.20
13440;DHT22;6792;57.698;11.946;2023-09-30T10:01:53;22.20;52.20
13440;DHT22;6792;57.698;11.946;2023-09-30T10:04:23;22.30;52.10
13440;DHT22;6792;57.698;11.946;2023-09-30T10:06:54;22.20;52.10
13440;DHT22;6792;57.698;11.946;2023-09-30T10:09:24;22.30;52.00
13440;DHT22;6792;57.698;11.946;2023-09-30T10:11:59;22.30;52.00
13440;DHT22;6792;57.698;11.946;2023-09-30T10:14:33;22.30;51.90
13440;DHT22;6792;57.698;11.946;2023-09-30T10:17:07;22.30;51.90
13440;DHT22;6792;57.698;11.946;2023-09-30T10:19:36;22.30;51.80
13440;DHT22;6792;57.698;11.946;2023-09-30T10:22:23;22.30;51.70
13440;DHT22;6792;57.698;11.946;2023-09-30T10:24:54;22.30;51.70
13440;DHT22;6792;57.698;11.946;2023-09-30T10:27:35;22.30;51.70
13440;DHT22;6792;57.698;11.946;2023-09-30T10:30:10;22.30;51.70
13440;DHT22;6792;57.698;11.946;2023-09-30T10:33:08;22.30;51.70
13440;DHT22;6792;57.698;11.946;2023-09-30T10:35:48;22.30;51.10
13440;DHT22;6792;57.698;11.946;2023-09-30T10:38:38;22.30;51.90
13440;DHT22;6792;57.698;11.946;2023-09-30T10:41:14;22.30;51.10
13440;DHT22;6792;57.698;11.946;2023-09-30T10:43:42;22.30;51.70
13440;DHT22;6792;57.698;11.946;2023-09-30T10:49:32;22.30;50.80
13440;DHT22;6792;57.698;11.946;2023-09-30T10:52:02;22.30;51.60
13440;DHT22;6792;57.698;11.946;2023-09-30T10:54:32;22.30;51.70
13440;DHT22;6792;57.698;11.946;2023-09-30T10:57:02;22.40;51.60
13440;DHT22;6792;57.698;11.946;2023-09-30T10:59:32;22.40;51.40
13440;DHT22;6792;57.698;11.946;2023-09-30T11:02:02;22.50;51.30
13440;DHT22;6792;57.698;11.946;2023-09-30T11:04:45;22.50;51.40
13440;DHT22;6792;57.698;11.946;2023-09-30T11:07:20;22.60;51.30
13440;DHT22;6792;57.698;11.946;2023-09-30T11:09:50;22.60;51.20
13440;DHT22;6792;57.698;11.946;2023-09-30T11:12:19;22.70;50.60
13440;DHT22;6792;57.698;11.946;2023-09-30T11:14:58;22.80;51.20
13440;DHT22;6792;57.698;11.946;2023-09-30T11:17:22;22.90;51.20
13440;DHT22;6792;57.698;11.946;2023-09-30T11:19:52;22.90;51.10
13440;DHT22;6792;57.698;11.946;2023-09-30T11:22:22;22.90;50.90
13440;DHT22;6792;57.698;11.946;2023-09-30T11:24:54;23.00;50.70
13440;DHT22;6792;57.698;11.946;2023-09-30T11:27:24;23.00;49.90
13440;DHT22;6792;57.698;11.946;2023-09-30T11:29:54;23.10;50.20
13440;DHT22;6792;57.698;11.946;2023-09-30T11:32:27;23.10;50.00
13440;DHT22;6792;57.698;11.946;2023-09-30T11:34:57;23.10;49.80
13440;DHT22;6792;57.698;11.946;2023-09-30T11:37:31;23.20;49.80
13440;DHT22;6792;57.698;11.946;2023-09-30T11:40:11;23.20;49.60
13440;DHT22;6792;57.698;11.946;2023-09-30T11:42:41;23.20;49.60
13440;DHT22;6792;57.698;11.946;2023-09-30T11:45:21;23.30;49.50
13440;DHT22;6792;57.698;11.946;2023-09-30T11:47:50;23.30;49.50
13440;DHT22;6792;57.698;11.946;2023-09-30T11:50:20;23.40;49.60
13440;DHT22;6792;57.698;11.946;2023-09-30T11:52:51;23.40;49.50
13440;DHT22;6792;57.698;11.946;2023-09-30T11:55:20;23.50;49.40
13440;DHT22;6792;57.698;11.946;2023-09-30T11:57:49;23.60;49.30
13440;DHT22;6792;57.698;11.946;2023-09-30T12:00:20;23.70;49.20
13440;DHT22;6792;57.698;11.946;2023-09-30T12:02:51;23.70;48.90
13440;DHT22;6792;57.698;11.946;2023-09-30T12:05:21;23.70;48.70
13440;DHT22;6792;57.698;11.946;2023-09-30T12:07:50;23.70;48.60
13440;DHT22;6792;57.698;11.946;2023-09-30T12:10:20;23.80;48.50
13440;DHT22;6792;57.698;11.946;2023-09-30T12:12:49;23.80;48.40
13440;DHT22;6792;57.698;11.946;2023-09-30T12:15:18;23.80;48.30
13440;DHT22;6792;57.698;11.946;2023-09-30T12:17:49;23.80;48.20
13440;DHT22;6792;57.698;11.946;2023-09-30T12:20:18;23.70;48.20
13440;DHT22;6792;57.698;11.946;2023-09-30T12:22:47;23.70;48.20
13440;DHT22;6792;57.698;11.946;2023-09-30T12:25:16;23.70;48.20
13440;DHT22;6792;57.698;11.946;2023-09-30T12:27:47;23.70;47.60
13440;DHT22;6792;57.698;11.946;2023-09-30T12:32:56;23.70;47.50
13440;DHT22;6792;57.698;11.946;2023-09-30T12:35:25;23.70;47.50
13440;DHT22;6792;57.698;11.946;2023-09-30T12:37:56;23.70;48.00
13440;DHT22;6792;57.698;11.946;2023-09-30T12:40:25;23.70;48.20
13440;DHT22;6792;57.698;11.946;2023-09-30T12:42:56;23.70;48.40
13440;DHT22;6792;57.698;11.946;2023-09-30T12:45:25;23.70;48.10
13440;DHT22;6792;57.698;11.946;2023-09-30T12:47:54;23.70;48.10
13440;DHT22;6792;57.698;11.946;2023-09-30T12:50:24;23.80;48.00
13440;DHT22;6792;57.698;11.946;2023-09-30T12:52:53;23.90;47.50
13440;DHT22;6792;57.698;11.946;2023-09-30T12:55:22;23.90;47.90
13440;DHT22;6792;57.698;11.946;2023-09-30T12:57:52;23.90;47.80
13440;DHT22;6792;57.698;11.946;2023-09-30T13:00:22;23.90;47.70
13440;DHT22;6792;57.698;11.946;2023-09-30T13:02:53;23.90;47.70
13440;DHT22;6792;57.698;11.946;2023-09-30T13:05:22;23.90;47.60
13440;DHT22;6792;57.698;11.946;2023-09-30T13:07:51;23.80;47.60
13440;DHT22;6792;57.698;11.946;2023-09-30T13:10:21;23.80;47.70
13440;DHT22;6792;57.698;11.946;2023-09-30T13:12:50;23.80;47.70
13440;DHT22;6792;57.698;11.946;2023-09-30T13:15:21;23.90;47.50
13440;DHT22;6792;57.698;11.946;2023-09-30T13:17:52;23.80;47.30
13440;DHT22;6792;57.698;11.946;2023-09-30T13:20:21;23.90;47.40
13440;DHT22;6792;57.698;11.946;2023-09-30T13:25:32;24.40;46.50
13440;DHT22;6792;57.698;11.946;2023-09-30T13:28:02;24.40;46.70
13440;DHT22;6792;57.698;11.946;2023-09-30T13:30:31;24.40;46.60
13440;DHT22;6792;57.698;11.946;2023-09-30T13:33:00;24.40;46.60
13440;DHT22;6792;57.698;11.946;2023-09-30T13:35:30;24.40;46.60
13440;DHT22;6792;57.698;11.946;2023-09-30T13:37:59;24.40;46.80
13440;DHT22;6792;57.698;11.946;2023-09-30T13:40:28;24.40;46.70
13440;DHT22;6792;57.698;11.946;2023-09-30T13:42:57;24.40;46.60
13440;DHT22;6792;57.698;11.946;2023-09-30T13:45:27;24.40;46.60
13440;DHT22;6792;57.698;11.946;2023-09-30T13:47:57;24.30;46.40
13440;DHT22;6792;57.698;11.946;2023-09-30T13:50:26;24.30;46.40
13440;DHT22;6792;57.698;11.946;2023-09-30T13:52:55;24.30;46.40
13440;DHT22;6792;57.698;11.946;2023-09-30T13:55:24;24.20;46.30
13440;DHT22;6792;57.698;11.946;2023-09-30T13:57:54;24.20;46.30
13440;DHT22;6792;57.698;11.946;2023-09-30T14:00:23;24.20;46.40
13440;DHT22;6792;57.698;11.946;2023-09-30T14:02:52;24.10;46.40
13440;DHT22;6792;57.698;11.946;2023-09-30T14:05:21;24.10;46.90
13440;DHT22;6792;57.698;11.946;2023-09-30T14:07:51;24.10;46.50
13440;DHT22;6792;57.698;11.946;2023-09-30T14:10:20;24.00;47.00
13440;DHT22;6792;57.698;11.946;2023-09-30T14:12:49;24.00;46.40
13440;DHT22;6792;57.698;11.946;2023-09-30T14:15:18;23.90;46.40
13440;DHT22;6792;57.698;11.946;2023-09-30T14:17:48;23.80;46.60
13440;DHT22;6792;57.698;11.946;2023-09-30T14:20:17;23.80;46.70
13440;DHT22;6792;57.698;11.946;2023-09-30T14:22:46;23.80;46.80
13440;DHT22;6792;57.698;11.946;2023-09-30T14:25:16;23.70;46.90
13440;DHT22;6792;57.698;11.946;2023-09-30T14:27:45;23.70;47.10
13440;DHT22;6792;57.698;11.946;2023-09-30T14:30:14;23.60;47.20
13440;DHT22;6792;57.698;11.946;2023-09-30T14:32:44;23.60;46.70
13440;DHT22;6792;57.698;11.946;2023-09-30T14:35:13;23.60;47.30
13440;DHT22;6792;57.698;11.946;2023-09-30T14:37:43;23.50;47.20
13440;DHT22;6792;57.698;11.946;2023-09-30T14:40:13;23.50;47.20
13440;DHT22;6792;57.698;11.946;2023-09-30T14:42:42;23.40;47.20
13440;DHT22;6792;57.698;11.946;2023-09-30T14:47:53;23.40;47.20
13440;DHT22;6792;57.698;11.946;2023-09-30T14:50:22;23.30;47.20
13440;DHT22;6792;57.698;11.946;2023-09-30T14:52:52;23.30;47.20
13440;DHT22;6792;57.698;11.946;2023-09-30T14:55:22;23.20;47.20
13440;DHT22;6792;57.698;11.946;2023-09-30T14:57:51;23.20;47.20
13440;DHT22;6792;57.698;11.946;2023-09-30T15:00:22;23.20;47.30
13440;DHT22;6792;57.698;11.946;2023-09-30T15:02:52;23.10;47.20
13440;DHT22;6792;57.698;11.946;2023-09-30T15:05:22;23.10;47.30
13440;DHT22;6792;57.698;11.946;2023-09-30T15:07:51;23.10;47.30
13440;DHT22;6792;57.698;11.946;2023-09-30T15:10:21;23.10;47.30
13440;DHT22;6792;57.698;11.946;2023-09-30T15:12:50;23.00;47.30
13440;DHT22;6792;57.698;11.946;2023-09-30T15:15:20;22.90;47.30
13440;DHT22;6792;57.698;11.946;2023-09-30T15:17:49;22.90;47.40
13440;DHT22;6792;57.698;11.946;2023-09-30T15:20:19;22.90;47.80
13440;DHT22;6792;57.698;11.946;2023-09-30T15:22:48;22.90;47.60
13440;DHT22;6792;57.698;11.946;2023-09-30T15:25:17;22.80;47.60
13440;DHT22;6792;57.698;11.946;2023-09-30T15:27:48;22.80;47.60
13440;DHT22;6792;57.698;11.946;2023-09-30T15:30:17;22.80;47.60
13440;DHT22;6792;57.698;11.946;2023-09-30T15:32:46;22.70;47.50
13440;DHT22;6792;57.698;11.946;2023-09-30T15:35:15;22.70;47.50
13440;DHT22;6792;57.698;11.946;2023-09-30T15:37:44;22.60;47.40
13440;DHT22;6792;57.698;11.946;2023-09-30T15:40:15;22.60;47.50
13440;DHT22;6792;57.698;11.946;2023-09-30T15:42:45;22.60;47.60
13440;DHT22;6792;57.698;11.946;2023-09-30T15:45:14;22.50;47.50
13440;DHT22;6792;57.698;11.946;2023-09-30T15:47:45;22.50;47.00
13440;DHT22;6792;57.698;11.946;2023-09-30T15:50:14;22.40;47.50
13440;DHT22;6792;57.698;11.946;2023-09-30T15:52:43;22.40;47.50
13440;DHT22;6792;57.698;11.946;2023-09-30T15:55:14;22.40;47.70
13440;DHT22;6792;57.698;11.946;2023-09-30T15:57:43;22.40;47.70
13440;DHT22;6792;57.698;11.946;2023-09-30T16:00:14;22.40;47.80
13440;DHT22;6792;57.698;11.946;2023-09-30T16:02:43;22.40;47.90
13440;DHT22;6792;57.698;11.946;2023-09-30T16:05:14;22.30;48.00
13440;DHT22;6792;57.698;11.946;2023-09-30T16:07:43;22.30;48.00
13440;DHT22;6792;57.698;11.946;2023-09-30T16:10:12;22.30;47.60
13440;DHT22;6792;57.698;11.946;2023-09-30T16:15:19;22.30;47.60
13440;DHT22;6792;57.698;11.946;2023-09-30T16:17:48;22.20;48.10